sensor_id;sensor_type;location;lat;lon;timestamp;pressure;altitude;pressure_sealevel;temperature;humidity
8101;BME280;4093;53.470;9.832;2022-09-20T00:01:13;101694.81;;;12.88;86.00
8101;BME280;4093;53.470;9.832;2022-09-20T00:03:42;101695.63;;;12.92;84.96
8101;BME280;4093;53.470;9.832;2022-09-20T00:06:11;101696.47;;;12.92;86.42
8101;BME280;4093;53.470;9.832;2022-09-20T00:08:38;101696.53;;;12.89;87.14
8101;BME280;4093;53.470;9.832;2022-09-20T00:11:07;101703.59;;;12.75;87.16
8101;BME280;4093;53.470;9.832;2022-09-20T00:13:35;101694.06;;;12.79;86.36
8101;BME280;4093;53.470;9.832;2022-09-20T00:16:04;101674.22;;;12.71;86.42
8101;BME280;4093;53.470;9.832;2022-09-20T00:18:32;101716.56;;;12.77;87.71
8101;BME280;4093;53.470;9.832;2022-09-20T00:20:58;101713.91;;;12.83;86.25
8101;BME280;4093;53.470;9.832;2022-09-20T00:23:25;101723.28;;;12.93;86.79
8101;BME280;4093;53.470;9.832;2022-09-20T00:25:55;101713.13;;;12.76;87.17
8101;BME280;4093;53.470;9.832;2022-09-20T00:28:23;101724.28;;;12.81;86.13
8101;BME280;4093;53.470;9.832;2022-09-20T00:30:50;101720.81;;;12.85;85.76
8101;BME280;4093;53.470;9.832;2022-09-20T00:33:17;101725.09;;;12.85;86.74
8101;BME280;4093;53.470;9.832;2022-09-20T00:35:45;101722.59;;;12.77;87.56
8101;BME280;4093;53.470;9.832;2022-09-20T00:38:11;101714.00;;;12.72;86.10
8101;BME280;4093;53.470;9.832;2022-09-20T00:40:39;101726.06;;;12.78;87.59
8101;BME280;4093;53.470;9.832;2022-09-20T00:43:06;101718.53;;;12.55;87.33
8101;BME280;4093;53.470;9.832;2022-09-20T00:45:32;101720.97;;;12.68;87.22
8101;BME280;4093;53.470;9.832;2022-09-20T00:48:02;101721.72;;;12.80;86.85
8101;BME280;4093;53.470;9.832;2022-09-20T00:50:32;101726.22;;;12.64;87.03
8101;BME280;4093;53.470;9.832;2022-09-20T00:53:07;101727.13;;;12.60;87.83
8101;BME280;4093;53.470;9.832;2022-09-20T00:55:37;101726.25;;;12.61;88.05
8101;BME280;4093;53.470;9.832;2022-09-20T00:58:06;101732.06;;;12.81;87.16
8101;BME280;4093;53.470;9.832;2022-09-20T01:00:33;101723.34;;;12.91;85.62
8101;BME280;4093;53.470;9.832;2022-09-20T01:03:03;101718.22;;;12.84;84.00
8101;BME280;4093;53.470;9.832;2022-09-20T01:05:32;101728.59;;;12.85;84.74
8101;BME280;4093;53.470;9.832;2022-09-20T01:07:59;101722.56;;;12.82;85.06
8101;BME280;4093;53.470;9.832;2022-09-20T01:10:27;101718.28;;;12.78;84.65
8101;BME280;4093;53.470;9.832;2022-09-20T01:12:54;101725.22;;;12.76;84.90
8101;BME280;4093;53.470;9.832;2022-09-20T01:15:21;101718.41;;;12.65;84.19
8101;BME280;4093;53.470;9.832;2022-09-20T01:17:53;101707.28;;;12.54;84.15
8101;BME280;4093;53.470;9.832;2022-09-20T01:20:23;101705.78;;;12.30;84.05
8101;BME280;4093;53.470;9.832;2022-09-20T01:23:19;101714.22;;;12.52;84.49
8101;BME280;4093;53.470;9.832;2022-09-20T01:26:38;101717.78;;;12.42;83.56
8101;BME280;4093;53.470;9.832;2022-09-20T01:29:18;101717.81;;;12.39;83.41
8101;BME280;4093;53.470;9.832;2022-09-20T01:31:51;101708.72;;;11.82;83.58
8101;BME280;4093;53.470;9.832;2022-09-20T01:34:22;101719.09;;;11.78;84.71
8101;BME280;4093;53.470;9.832;2022-09-20T01:36:54;101716.50;;;11.78;84.31
8101;BME280;4093;53.470;9.832;2022-09-20T01:39:29;101726.75;;;12.02;85.23
8101;BME280;4093;53.470;9.832;2022-09-20T01:42:04;101733.66;;;12.03;84.09
8101;BME280;4093;53.470;9.832;2022-09-20T01:44:37;101725.13;;;11.83;84.64
8101;BME280;4093;53.470;9.832;2022-09-20T01:47:10;101729.59;;;11.58;84.65
8101;BME280;4093;53.470;9.832;2022-09-20T01:49:46;101729.69;;;11.37;85.63
8101;BME280;4093;53.470;9.832;2022-09-20T01:52:39;101740.81;;;11.55;86.77
8101;BME280;4093;53.470;9.832;2022-09-20T01:55:35;101734.00;;;11.42;88.21
8101;BME280;4093;53.470;9.832;2022-09-20T01:58:32;101735.72;;;11.40;87.17
8101;BME280;4093;53.470;9.832;2022-09-20T02:01:28;101743.56;;;11.23;88.27
8101;BME280;4093;53.470;9.832;2022-09-20T02:04:27;101747.84;;;11.30;87.53
8101;BME280;4093;53.470;9.832;2022-09-20T02:07:19;101768.50;;;11.47;87.03
8101;BME280;4093;53.470;9.832;2022-09-20T02:10:08;101758.03;;;11.66;85.75
8101;BME280;4093;53.470;9.832;2022-09-20T02:12:51;101747.72;;;11.60;86.00
8101;BME280;4093;53.470;9.832;2022-09-20T02:15:33;101759.78;;;11.64;84.88
8101;BME280;4093;53.470;9.832;2022-09-20T02:18:20;101759.75;;;11.68;84.98
8101;BME280;4093;53.470;9.832;2022-09-20T02:20:55;101754.72;;;11.39;84.79
8101;BME280;4093;53.470;9.832;2022-09-20T02:23:34;101757.25;;;11.50;85.03
8101;BME280;4093;53.470;9.832;2022-09-20T02:26:14;101768.44;;;11.61;84.18
8101;BME280;4093;53.470;9.832;2022-09-20T02:28:52;101760.88;;;11.06;87.73
8101;BME280;4093;53.470;9.832;2022-09-20T02:31:29;101772.91;;;11.31;87.11
8101;BME280;4093;53.470;9.832;2022-09-20T02:34:28;101733.25;;;11.14;86.33
8101;BME280;4093;53.470;9.832;2022-09-20T02:37:11;101771.16;;;11.27;87.54
8101;BME280;4093;53.470;9.832;2022-09-20T02:39:45;101778.00;;;11.47;87.08
8101;BME280;4093;53.470;9.832;2022-09-20T02:42:20;101774.56;;;11.48;88.59
8101;BME280;4093;53.470;9.832;2022-09-20T02:44:55;101771.91;;;11.60;86.74
8101;BME280;4093;53.470;9.832;2022-09-20T02:47:30;101786.53;;;11.67;87.09
8101;BME280;4093;53.470;9.832;2022-09-20T02:50:16;101777.03;;;11.68;86.48
8101;BME280;4093;53.470;9.832;2022-09-20T02:52:53;101787.44;;;11.58;88.07
8101;BME280;4093;53.470;9.832;2022-09-20T02:55:34;101786.53;;;11.67;87.79
8101;BME280;4093;53.470;9.832;2022-09-20T02:58:15;101769.34;;;11.54;87.90
8101;BME280;4093;53.470;9.832;2022-09-20T03:00:52;101791.72;;;11.70;87.73
8101;BME280;4093;53.470;9.832;2022-09-20T03:03:27;101794.28;;;11.70;86.45
8101;BME280;4093;53.470;9.832;2022-09-20T03:06:00;101754.63;;;11.59;85.02
8101;BME280;4093;53.470;9.832;2022-09-20T03:08:33;101787.38;;;11.72;83.86
8101;BME280;4093;53.470;9.832;2022-09-20T03:11:12;101783.34;;;10.98;86.78
8101;BME280;4093;53.470;9.832;2022-09-20T03:13:53;101757.47;;;10.98;85.52
8101;BME280;4093;53.470;9.832;2022-09-20T03:16:30;101797.03;;;11.33;83.81
8101;BME280;4093;53.470;9.832;2022-09-20T03:19:09;101799.66;;;11.29;85.83
8101;BME280;4093;53.470;9.832;2022-09-20T03:21:49;101803.06;;;11.40;85.38
8101;BME280;4093;53.470;9.832;2022-09-20T03:24:27;101798.81;;;11.18;86.14
8101;BME280;4093;53.470;9.832;2022-09-20T03:27:04;101814.28;;;11.41;85.15
8101;BME280;4093;53.470;9.832;2022-09-20T03:29:41;101804.84;;;11.20;86.79
8101;BME280;4093;53.470;9.832;2022-09-20T03:32:24;101810.00;;;11.27;86.94
8101;BME280;4093;53.470;9.832;2022-09-20T03:35:04;101788.47;;;11.22;86.50
8101;BME280;4093;53.470;9.832;2022-09-20T03:37:48;101806.56;;;11.28;86.33
8101;BME280;4093;53.470;9.832;2022-09-20T03:40:49;101809.94;;;11.47;86.03
8101;BME280;4093;53.470;9.832;2022-09-20T03:43:27;101802.19;;;11.40;85.69
8101;BME280;4093;53.470;9.832;2022-09-20T03:46:05;101804.78;;;11.41;85.44
8101;BME280;4093;53.470;9.832;2022-09-20T03:49:04;101800.50;;;11.35;85.36
8101;BME280;4093;53.470;9.832;2022-09-20T03:51:44;101810.00;;;11.35;86.15
8101;BME280;4093;53.470;9.832;2022-09-20T03:57:49;101810.84;;;11.28;86.83
8101;BME280;4093;53.470;9.832;2022-09-20T04:00:23;101811.75;;;11.22;86.74
8101;BME280;4093;53.470;9.832;2022-09-20T04:03:11;101790.22;;;11.08;86.10
8101;BME280;4093;53.470;9.832;2022-09-20T04:05:48;101809.22;;;10.92;87.10
8101;BME280;4093;53.470;9.832;2022-09-20T04:08:28;101807.50;;;10.86;85.91
8101;BME280;4093;53.470;9.832;2022-09-20T04:11:07;101806.63;;;11.02;86.04
8101;BME280;4093;53.470;9.832;2022-09-20T04:13:39;101794.63;;;10.60;83.59
8101;BME280;4093;53.470;9.832;2022-09-20T04:16:21;101798.06;;;10.34;85.93
8101;BME280;4093;53.470;9.832;2022-09-20T04:18:51;101802.31;;;10.18;86.24
8101;BME280;4093;53.470;9.832;2022-09-20T04:21:27;101808.41;;;10.42;85.34
8101;BME280;4093;53.470;9.832;2022-09-20T04:24:00;101811.00;;;10.40;84.87
8101;BME280;4093;53.470;9.832;2022-09-20T04:26:29;101815.25;;;10.22;86.22
8101;BME280;4093;53.470;9.832;2022-09-20T04:29:03;101782.44;;;9.90;85.42
8101;BME280;4093;53.470;9.832;2022-09-20T04:31:39;101819.53;;;10.18;84.19
8101;BME280;4093;53.470;9.832;2022-09-20T04:34:14;101819.50;;;10.12;83.80
8101;BME280;4093;53.470;9.832;2022-09-20T04:36:55;101820.38;;;10.03;84.35
8101;BME280;4093;53.470;9.832;2022-09-20T04:39:30;101814.22;;;9.63;86.10
8101;BME280;4093;53.470;9.832;2022-09-20T04:42:33;101817.69;;;9.74;85.26
8101;BME280;4093;53.470;9.832;2022-09-20T04:45:42;101825.47;;;9.86;85.25
8101;BME280;4093;53.470;9.832;2022-09-20T04:49:09;101816.84;;;9.75;84.91
8101;BME280;4093;53.470;9.832;2022-09-20T04:52:28;101822.84;;;9.68;84.56
8101;BME280;4093;53.470;9.832;2022-09-20T04:55:20;101824.53;;;9.60;84.85
8101;BME280;4093;53.470;9.832;2022-09-20T05:04:32;101836.41;;;9.27;85.39
8101;BME280;4093;53.470;9.832;2022-09-20T05:10:32;101836.44;;;9.30;86.02
8101;BME280;4093;53.470;9.832;2022-09-20T05:13:15;101836.28;;;9.02;86.26
8101;BME280;4093;53.470;9.832;2022-09-20T05:15:52;101844.19;;;9.30;84.97
8101;BME280;4093;53.470;9.832;2022-09-20T05:21:33;101855.44;;;9.44;85.19
8101;BME280;4093;53.470;9.832;2022-09-20T05:24:16;101855.50;;;9.54;85.31
8101;BME280;4093;53.470;9.832;2022-09-20T05:27:01;101869.25;;;9.56;84.82
8101;BME280;4093;53.470;9.832;2022-09-20T05:29:35;101864.91;;;9.45;85.27
8101;BME280;4093;53.470;9.832;2022-09-20T05:32:11;101866.72;;;9.68;84.96
8101;BME280;4093;53.470;9.832;2022-09-20T05:34:47;101871.09;;;9.75;84.00
8101;BME280;4093;53.470;9.832;2022-09-20T05:37:26;101873.72;;;9.89;85.20
8101;BME280;4093;53.470;9.832;2022-09-20T05:40:00;101878.03;;;9.91;85.34
8101;BME280;4093;53.470;9.832;2022-09-20T05:42:36;101877.91;;;9.64;85.37
8101;BME280;4093;53.470;9.832;2022-09-20T05:45:19;101878.88;;;9.89;85.70
8101;BME280;4093;53.470;9.832;2022-09-20T05:47:51;101887.53;;;9.97;85.71
8101;BME280;4093;53.470;9.832;2022-09-20T05:50:38;101890.16;;;10.06;86.28
8101;BME280;4093;53.470;9.832;2022-09-20T05:53:33;101877.03;;;9.59;88.10
8101;BME280;4093;53.470;9.832;2022-09-20T05:56:11;101891.81;;;9.90;88.61
8101;BME280;4093;53.470;9.832;2022-09-20T05:58:51;101887.53;;;9.94;88.55
8101;BME280;4093;53.470;9.832;2022-09-20T06:01:24;101904.84;;;10.26;89.93
8101;BME280;4093;53.470;9.832;2022-09-20T06:03:54;101909.28;;;10.96;88.76
8101;BME280;4093;53.470;9.832;2022-09-20T06:06:28;101926.69;;;12.87;84.35
8101;BME280;4093;53.470;9.832;2022-09-20T06:09:10;101917.28;;;15.44;71.62
8101;BME280;4093;53.470;9.832;2022-09-20T06:11:55;101918.16;;;17.70;62.81
8101;BME280;4093;53.470;9.832;2022-09-20T06:14:37;101922.28;;;19.45;59.99
8101;BME280;4093;53.470;9.832;2022-09-20T06:17:12;101906.72;;;20.78;56.74
8101;BME280;4093;53.470;9.832;2022-09-20T06:19:45;101892.56;;;20.60;52.67
8101;BME280;4093;53.470;9.832;2022-09-20T06:22:21;101892.47;;;22.39;50.15
8101;BME280;4093;53.470;9.832;2022-09-20T06:24:55;101880.97;;;22.59;48.36
8101;BME280;4093;53.470;9.832;2022-09-20T06:27:29;101870.34;;;22.78;46.97
8101;BME280;4093;53.470;9.832;2022-09-20T06:30:00;101847.13;;;22.14;50.87
8101;BME280;4093;53.470;9.832;2022-09-20T06:32:30;101877.44;;;23.79;46.62
8101;BME280;4093;53.470;9.832;2022-09-20T06:34:57;101882.56;;;24.90;44.63
8101;BME280;4093;53.470;9.832;2022-09-20T06:37:37;101875.66;;;25.18;43.65
8101;BME280;4093;53.470;9.832;2022-09-20T06:40:37;101883.50;;;25.62;43.42
8101;BME280;4093;53.470;9.832;2022-09-20T06:43:22;101881.81;;;25.32;46.12
8101;BME280;4093;53.470;9.832;2022-09-20T06:45:48;101886.03;;;26.46;42.93
8101;BME280;4093;53.470;9.832;2022-09-20T06:48:15;101884.34;;;26.45;43.83
8101;BME280;4093;53.470;9.832;2022-09-20T06:50:43;101887.16;;;23.78;46.58
8101;BME280;4093;53.470;9.832;2022-09-20T06:53:14;101894.59;;;21.56;52.62
8101;BME280;4093;53.470;9.832;2022-09-20T06:55:43;101900.22;;;20.21;56.32
8101;BME280;4093;53.470;9.832;2022-09-20T06:58:10;101902.63;;;18.53;63.23
8101;BME280;4093;53.470;9.832;2022-09-20T07:00:37;101910.97;;;18.64;62.91
8101;BME280;4093;53.470;9.832;2022-09-20T07:03:04;101919.47;;;17.55;67.35
8101;BME280;4093;53.470;9.832;2022-09-20T07:05:31;101922.88;;;17.25;69.82
8101;BME280;4093;53.470;9.832;2022-09-20T07:07:58;101924.59;;;16.92;70.13
8101;BME280;4093;53.470;9.832;2022-09-20T07:10:27;101929.34;;;16.76;72.54
8101;BME280;4093;53.470;9.832;2022-09-20T07:12:55;101925.66;;;16.84;71.28
8101;BME280;4093;53.470;9.832;2022-09-20T07:15:25;101928.25;;;16.84;71.61
8101;BME280;4093;53.470;9.832;2022-09-20T07:17:52;101927.75;;;16.69;72.09
8101;BME280;4093;53.470;9.832;2022-09-20T07:20:19;101929.66;;;16.62;73.68
8101;BME280;4093;53.470;9.832;2022-09-20T07:22:46;101932.53;;;16.50;74.67
8101;BME280;4093;53.470;9.832;2022-09-20T07:25:13;101939.00;;;16.33;76.30
8101;BME280;4093;53.470;9.832;2022-09-20T07:27:43;101944.09;;;16.39;74.86
8101;BME280;4093;53.470;9.832;2022-09-20T07:30:12;101954.69;;;16.71;74.29
8101;BME280;4093;53.470;9.832;2022-09-20T07:32:39;101952.97;;;16.31;76.41
8101;BME280;4093;53.470;9.832;2022-09-20T07:35:07;101949.03;;;16.11;77.48
8101;BME280;4093;53.470;9.832;2022-09-20T07:37:33;101959.78;;;16.38;76.82
8101;BME280;4093;53.470;9.832;2022-09-20T07:40:00;101951.28;;;16.28;77.61
8101;BME280;4093;53.470;9.832;2022-09-20T07:42:27;101963.47;;;16.68;75.22
8101;BME280;4093;53.470;9.832;2022-09-20T07:44:56;101971.31;;;17.04;76.96
8101;BME280;4093;53.470;9.832;2022-09-20T07:47:23;101970.25;;;19.48;69.07
8101;BME280;4093;53.470;9.832;2022-09-20T07:49:51;101961.03;;;22.21;60.53
8101;BME280;4093;53.470;9.832;2022-09-20T07:52:18;101970.69;;;25.06;53.08
8101;BME280;4093;53.470;9.832;2022-09-20T07:54:44;101960.31;;;27.00;49.64
8101;BME280;4093;53.470;9.832;2022-09-20T07:57:11;101957.19;;;27.72;44.76
8101;BME280;4093;53.470;9.832;2022-09-20T07:59:38;101956.56;;;28.55;42.77
8101;BME280;4093;53.470;9.832;2022-09-20T08:02:06;101941.78;;;29.10;42.86
8101;BME280;4093;53.470;9.832;2022-09-20T08:04:32;101957.31;;;29.16;42.53
8101;BME280;4093;53.470;9.832;2022-09-20T08:06:59;101960.97;;;29.60;41.98
8101;BME280;4093;53.470;9.832;2022-09-20T08:09:25;101952.97;;;29.38;40.95
8101;BME280;4093;53.470;9.832;2022-09-20T08:11:52;101949.25;;;29.74;41.35
8101;BME280;4093;53.470;9.832;2022-09-20T08:14:20;101952.13;;;30.05;40.58
8101;BME280;4093;53.470;9.832;2022-09-20T08:16:48;101950.09;;;30.52;37.27
8101;BME280;4093;53.470;9.832;2022-09-20T08:19:18;101948.91;;;29.90;38.64
8101;BME280;4093;53.470;9.832;2022-09-20T08:21:46;101940.38;;;30.51;36.99
8101;BME280;4093;53.470;9.832;2022-09-20T08:24:13;101962.22;;;29.79;38.54
8101;BME280;4093;53.470;9.832;2022-09-20T08:26:41;101961.06;;;30.81;35.96
8101;BME280;4093;53.470;9.832;2022-09-20T08:29:08;101970.44;;;31.59;36.00
8101;BME280;4093;53.470;9.832;2022-09-20T08:31:37;101964.66;;;31.12;36.59
8101;BME280;4093;53.470;9.832;2022-09-20T08:34:09;101970.25;;;31.09;36.81
8101;BME280;4093;53.470;9.832;2022-09-20T08:36:40;101972.00;;;30.99;36.96
8101;BME280;4093;53.470;9.832;2022-09-20T08:39:09;101964.13;;;29.99;37.46
8101;BME280;4093;53.470;9.832;2022-09-20T08:41:41;101971.03;;;31.21;36.04
8101;BME280;4093;53.470;9.832;2022-09-20T08:44:11;101979.34;;;30.53;37.44
8101;BME280;4093;53.470;9.832;2022-09-20T08:46:44;101969.56;;;31.58;35.01
8101;BME280;4093;53.470;9.832;2022-09-20T08:49:16;101974.47;;;31.32;34.28
8101;BME280;4093;53.470;9.832;2022-09-20T08:51:46;101981.84;;;30.34;36.61
8101;BME280;4093;53.470;9.832;2022-09-20T08:54:15;101971.78;;;30.26;36.90
8101;BME280;4093;53.470;9.832;2022-09-20T08:56:41;101981.25;;;28.57;39.45
8101;BME280;4093;53.470;9.832;2022-09-20T08:59:13;101980.78;;;30.03;37.36
8101;BME280;4093;53.470;9.832;2022-09-20T09:01:41;101983.28;;;29.37;37.48
8101;BME280;4093;53.470;9.832;2022-09-20T09:04:12;101990.16;;;28.45;37.92
8101;BME280;4093;53.470;9.832;2022-09-20T09:06:39;101992.44;;;24.02;46.66
8101;BME280;4093;53.470;9.832;2022-09-20T09:09:18;101996.34;;;23.95;47.63
8101;BME280;4093;53.470;9.832;2022-09-20T09:11:45;101994.84;;;22.49;52.62
8101;BME280;4093;53.470;9.832;2022-09-20T09:14:22;101993.47;;;19.09;60.65
8101;BME280;4093;53.470;9.832;2022-09-20T09:17:16;101997.75;;;18.55;62.84
8101;BME280;4093;53.470;9.832;2022-09-20T09:19:46;102003.97;;;19.07;60.38
8101;BME280;4093;53.470;9.832;2022-09-20T09:22:18;102009.03;;;19.40;59.20
8101;BME280;4093;53.470;9.832;2022-09-20T09:25:05;102014.91;;;19.47;58.82
8101;BME280;4093;53.470;9.832;2022-09-20T09:27:33;102017.63;;;20.66;57.07
8101;BME280;4093;53.470;9.832;2022-09-20T09:30:00;102001.03;;;20.18;57.21
8101;BME280;4093;53.470;9.832;2022-09-20T09:32:29;102019.47;;;20.40;58.92
8101;BME280;4093;53.470;9.832;2022-09-20T09:35:21;102017.38;;;20.48;58.45
8101;BME280;4093;53.470;9.832;2022-09-20T09:37:52;102006.44;;;19.90;59.11
8101;BME280;4093;53.470;9.832;2022-09-20T09:40:21;102019.00;;;19.29;60.29
8101;BME280;4093;53.470;9.832;2022-09-20T09:42:50;102023.53;;;19.50;61.07
8101;BME280;4093;53.470;9.832;2022-09-20T09:45:29;102036.91;;;19.94;60.92
8101;BME280;4093;53.470;9.832;2022-09-20T09:48:01;102036.41;;;19.83;59.51
8101;BME280;4093;53.470;9.832;2022-09-20T09:50:31;102016.91;;;19.40;60.50
8101;BME280;4093;53.470;9.832;2022-09-20T09:53:01;102028.69;;;20.27;57.06
8101;BME280;4093;53.470;9.832;2022-09-20T09:55:40;102021.47;;;19.85;56.51
8101;BME280;4093;53.470;9.832;2022-09-20T09:58:23;102007.72;;;19.00;58.08
8101;BME280;4093;53.470;9.832;2022-09-20T10:00:57;102025.88;;;19.33;58.47
8101;BME280;4093;53.470;9.832;2022-09-20T10:03:42;102032.06;;;18.76;59.51
8101;BME280;4093;53.470;9.832;2022-09-20T10:06:22;102027.66;;;18.78;59.09
8101;BME280;4093;53.470;9.832;2022-09-20T10:09:05;102023.38;;;18.14;58.38
8101;BME280;4093;53.470;9.832;2022-09-20T10:11:47;102038.56;;;19.45;57.53
8101;BME280;4093;53.470;9.832;2022-09-20T10:14:32;102019.94;;;20.28;56.56
8101;BME280;4093;53.470;9.832;2022-09-20T10:17:17;102022.41;;;19.84;56.21
8101;BME280;4093;53.470;9.832;2022-09-20T10:20:00;102037.38;;;19.02;58.64
8101;BME280;4093;53.470;9.832;2022-09-20T10:22:36;102005.91;;;18.44;56.92
8101;BME280;4093;53.470;9.832;2022-09-20T10:25:19;102026.69;;;18.50;58.78
8101;BME280;4093;53.470;9.832;2022-09-20T10:28:06;102040.19;;;19.23;59.68
8101;BME280;4093;53.470;9.832;2022-09-20T10:30:43;102038.09;;;19.34;58.67
8101;BME280;4093;53.470;9.832;2022-09-20T10:33:19;102026.94;;;19.52;57.39
8101;BME280;4093;53.470;9.832;2022-09-20T10:35:59;102026.44;;;19.93;57.55
8101;BME280;4093;53.470;9.832;2022-09-20T10:38:33;102027.44;;;19.90;56.51
8101;BME280;4093;53.470;9.832;2022-09-20T10:41:15;102027.88;;;19.78;57.58
8101;BME280;4093;53.470;9.832;2022-09-20T10:44:14;102028.38;;;19.62;57.71
8101;BME280;4093;53.470;9.832;2022-09-20T10:46:53;102001.09;;;19.68;56.66
8101;BME280;4093;53.470;9.832;2022-09-20T10:49:33;102016.16;;;19.86;56.19
8101;BME280;4093;53.470;9.832;2022-09-20T10:52:21;102028.88;;;20.22;54.44
8101;BME280;4093;53.470;9.832;2022-09-20T10:55:02;102036.94;;;20.65;54.83
8101;BME280;4093;53.470;9.832;2022-09-20T10:57:51;102021.97;;;20.20;54.40
8101;BME280;4093;53.470;9.832;2022-09-20T11:00:38;102023.34;;;20.30;55.73
8101;BME280;4093;53.470;9.832;2022-09-20T11:03:20;102029.59;;;18.99;56.67
8101;BME280;4093;53.470;9.832;2022-09-20T11:06:00;102031.59;;;18.61;59.20
8101;BME280;4093;53.470;9.832;2022-09-20T11:08:33;102029.19;;;17.60;61.47
8101;BME280;4093;53.470;9.832;2022-09-20T11:11:05;102034.00;;;17.75;60.67
8101;BME280;4093;53.470;9.832;2022-09-20T11:13:38;102016.41;;;17.84;60.80
8101;BME280;4093;53.470;9.832;2022-09-20T11:16:13;102057.41;;;18.14;59.55
8101;BME280;4093;53.470;9.832;2022-09-20T11:18:46;102066.16;;;18.44;59.80
8101;BME280;4093;53.470;9.832;2022-09-20T11:21:19;102054.66;;;19.08;57.40
8101;BME280;4093;53.470;9.832;2022-09-20T11:23:51;102053.75;;;19.35;56.58
8101;BME280;4093;53.470;9.832;2022-09-20T11:26:24;102053.66;;;19.38;54.82
8101;BME280;4093;53.470;9.832;2022-09-20T11:28:59;102049.28;;;19.39;54.90
8101;BME280;4093;53.470;9.832;2022-09-20T11:31:33;102044.50;;;19.25;54.64
8101;BME280;4093;53.470;9.832;2022-09-20T11:34:08;102049.78;;;19.50;56.03
8101;BME280;4093;53.470;9.832;2022-09-20T11:36:41;102047.53;;;19.11;58.57
8101;BME280;4093;53.470;9.832;2022-09-20T11:39:16;102048.97;;;19.48;56.37
8101;BME280;4093;53.470;9.832;2022-09-20T11:41:48;102055.53;;;19.35;59.33
8101;BME280;4093;53.470;9.832;2022-09-20T11:44:18;102056.84;;;19.48;56.96
8101;BME280;4093;53.470;9.832;2022-09-20T11:46:49;102063.47;;;19.58;56.72
8101;BME280;4093;53.470;9.832;2022-09-20T11:49:22;102050.78;;;19.73;56.81
8101;BME280;4093;53.470;9.832;2022-09-20T11:52:15;102054.31;;;19.18;58.54
8101;BME280;4093;53.470;9.832;2022-09-20T11:54:57;102049.16;;;18.59;59.48
8101;BME280;4093;53.470;9.832;2022-09-20T11:57:30;102050.16;;;18.85;58.48
8101;BME280;4093;53.470;9.832;2022-09-20T11:59:59;102058.00;;;19.39;57.98
8101;BME280;4093;53.470;9.832;2022-09-20T12:02:33;102050.22;;;19.63;56.77
8101;BME280;4093;53.470;9.832;2022-09-20T12:05:02;102046.72;;;19.89;56.23
8101;BME280;4093;53.470;9.832;2022-09-20T12:07:33;102049.75;;;19.77;55.82
8101;BME280;4093;53.470;9.832;2022-09-20T12:10:04;102042.69;;;19.79;55.52
8101;BME280;4093;53.470;9.832;2022-09-20T12:12:36;102051.69;;;19.18;56.90
8101;BME280;4093;53.470;9.832;2022-09-20T12:15:06;102035.03;;;19.21;58.29
8101;BME280;4093;53.470;9.832;2022-09-20T12:18:07;102048.28;;;19.43;57.64
8101;BME280;4093;53.470;9.832;2022-09-20T12:21:04;102063.69;;;19.79;57.29
8101;BME280;4093;53.470;9.832;2022-09-20T12:26:37;102062.63;;;20.09;56.17
8101;BME280;4093;53.470;9.832;2022-09-20T12:32:51;102052.44;;;20.00;55.01
8101;BME280;4093;53.470;9.832;2022-09-20T12:38:55;102043.56;;;19.79;56.34
8101;BME280;4093;53.470;9.832;2022-09-20T12:41:23;102044.56;;;19.49;56.15
8101;BME280;4093;53.470;9.832;2022-09-20T12:44:03;102006.22;;;19.19;54.44
8101;BME280;4093;53.470;9.832;2022-09-20T12:46:34;102047.97;;;19.26;55.47
8101;BME280;4093;53.470;9.832;2022-09-20T12:52:22;102034.84;;;19.26;54.15
8101;BME280;4093;53.470;9.832;2022-09-20T12:55:08;102035.38;;;19.37;55.01
8101;BME280;4093;53.470;9.832;2022-09-20T12:57:37;102038.47;;;19.75;53.76
8101;BME280;4093;53.470;9.832;2022-09-20T13:00:06;102030.19;;;18.81;54.75
8101;BME280;4093;53.470;9.832;2022-09-20T13:02:58;102041.91;;;19.24;55.67
8101;BME280;4093;53.470;9.832;2022-09-20T13:05:34;101995.72;;;19.19;54.62
8101;BME280;4093;53.470;9.832;2022-09-20T13:08:10;102043.50;;;20.06;53.99
8101;BME280;4093;53.470;9.832;2022-09-20T13:10:44;102027.81;;;19.79;53.74
8101;BME280;4093;53.470;9.832;2022-09-20T13:13:41;102038.13;;;19.59;53.85
8101;BME280;4093;53.470;9.832;2022-09-20T13:16:17;102031.72;;;19.14;54.48
8101;BME280;4093;53.470;9.832;2022-09-20T13:18:48;102024.66;;;19.16;52.24
8101;BME280;4093;53.470;9.832;2022-09-20T13:21:19;102029.78;;;19.21;53.38
8101;BME280;4093;53.470;9.832;2022-09-20T13:23:49;102040.81;;;19.82;52.53
8101;BME280;4093;53.470;9.832;2022-09-20T13:26:23;102021.81;;;19.24;49.96
8101;BME280;4093;53.470;9.832;2022-09-20T13:28:53;102043.72;;;20.00;50.27
8101;BME280;4093;53.470;9.832;2022-09-20T13:31:29;102034.19;;;19.97;51.82
8101;BME280;4093;53.470;9.832;2022-09-20T13:34:26;102039.50;;;20.66;50.73
8101;BME280;4093;53.470;9.832;2022-09-20T13:36:56;102014.25;;;19.67;52.08
8101;BME280;4093;53.470;9.832;2022-09-20T13:39:31;102031.91;;;19.86;51.66
8101;BME280;4093;53.470;9.832;2022-09-20T13:42:04;102035.31;;;20.14;52.02
8101;BME280;4093;53.470;9.832;2022-09-20T13:44:33;102027.75;;;19.81;51.75
8101;BME280;4093;53.470;9.832;2022-09-20T13:47:19;101997.22;;;19.27;54.57
8101;BME280;4093;53.470;9.832;2022-09-20T13:49:46;102037.84;;;19.93;53.98
8101;BME280;4093;53.470;9.832;2022-09-20T13:52:21;102037.94;;;19.90;52.95
8101;BME280;4093;53.470;9.832;2022-09-20T13:54:48;102039.06;;;20.55;50.77
8101;BME280;4093;53.470;9.832;2022-09-20T13:57:20;102033.50;;;20.39;51.42
8101;BME280;4093;53.470;9.832;2022-09-20T13:59:47;102043.22;;;20.61;51.19
8101;BME280;4093;53.470;9.832;2022-09-20T14:02:21;102043.63;;;20.50;51.34
8101;BME280;4093;53.470;9.832;2022-09-20T14:04:50;102040.84;;;20.54;51.35
8101;BME280;4093;53.470;9.832;2022-09-20T14:07:19;102034.38;;;20.63;49.51
8101;BME280;4093;53.470;9.832;2022-09-20T14:09:50;102041.56;;;19.86;49.98
8101;BME280;4093;53.470;9.832;2022-09-20T14:12:20;102048.56;;;20.59;50.67
8101;BME280;4093;53.470;9.832;2022-09-20T14:14:49;102035.59;;;20.76;49.76
8101;BME280;4093;53.470;9.832;2022-09-20T14:17:17;102041.22;;;20.44;50.54
8101;BME280;4093;53.470;9.832;2022-09-20T14:19:48;102044.47;;;20.74;50.72
8101;BME280;4093;53.470;9.832;2022-09-20T14:22:18;102034.38;;;20.85;50.18
8101;BME280;4093;53.470;9.832;2022-09-20T14:24:57;102046.00;;;20.79;50.94
8101;BME280;4093;53.470;9.832;2022-09-20T14:27:27;102006.84;;;20.03;51.30